createdAt,value
2018-02-27T00:00:36.228Z,75.20
2018-02-27T00:03:03.167Z,75.40
2018-02-27T00:05:30.133Z,75.40
2018-02-27T00:07:57.119Z,75.60
2018-02-27T00:10:24.054Z,75.40
2018-02-27T00:12:51.743Z,80.10
2018-02-27T00:15:18.795Z,80.20
2018-02-27T00:17:46.651Z,87.70
2018-02-27T00:20:13.606Z,94.10
2018-02-27T00:22:40.551Z,99.90
2018-02-27T00:25:07.470Z,99.90
2018-02-27T00:27:34.438Z,99.90
2018-02-27T00:30:01.366Z,99.90
2018-02-27T00:32:28.327Z,99.90
2018-02-27T00:34:56.291Z,99.90
2018-02-27T00:37:23.258Z,99.90
2018-02-27T00:39:50.207Z,99.90
2018-02-27T00:42:17.148Z,99.90
2018-02-27T00:44:44.065Z,99.90
2018-02-27T00:47:11.935Z,99.90
2018-02-27T00:49:38.867Z,99.90
2018-02-27T00:52:06.803Z,99.90
2018-02-27T00:54:33.763Z,99.90
2018-02-27T00:57:02.484Z,99.90
2018-02-27T00:59:29.398Z,99.90
2018-02-27T01:01:57.118Z,99.90
2018-02-27T01:04:24.060Z,99.90
2018-02-27T01:06:51.023Z,99.90
2018-02-27T01:09:17.969Z,99.90
2018-02-27T01:11:44.926Z,99.90
2018-02-27T01:14:12.622Z,99.90
2018-02-27T01:16:39.545Z,99.90
2018-02-27T01:19:07.267Z,99.90
2018-02-27T01:21:34.233Z,99.90
2018-02-27T01:24:01.970Z,99.90
2018-02-27T01:26:28.921Z,99.90
2018-02-27T01:28:55.850Z,99.90
2018-02-27T01:31:22.779Z,99.90
2018-02-27T01:33:49.715Z,99.90
2018-02-27T01:36:16.644Z,99.90
2018-02-27T01:38:43.592Z,99.90
2018-02-27T01:41:10.516Z,99.90
2018-02-27T01:43:37.456Z,99.90
2018-02-27T01:46:04.382Z,99.90
2018-02-27T01:48:32.307Z,99.90
2018-02-27T01:51:11.028Z,99.90
2018-02-27T01:53:37.980Z,99.90
2018-02-27T01:56:04.907Z,99.90
2018-02-27T01:58:31.855Z,99.90
2018-02-27T02:00:58.796Z,99.90
2018-02-27T02:03:25.843Z,99.90
2018-02-27T02:05:52.774Z,99.90
2018-02-27T02:08:20.508Z,99.90
2018-02-27T02:10:47.454Z,99.90
2018-02-27T02:13:14.417Z,99.90
2018-02-27T02:15:42.135Z,99.90
2018-02-27T02:18:09.089Z,99.90
2018-02-27T02:20:36.024Z,99.90
2018-02-27T02:23:02.984Z,99.90
2018-02-27T02:25:29.914Z,99.90
2018-02-27T02:27:56.857Z,99.90
2018-02-27T02:30:24.812Z,99.90
2018-02-27T02:32:51.764Z,99.90
2018-02-27T02:35:18.727Z,99.90
2018-02-27T02:37:46.679Z,99.90
2018-02-27T02:40:14.630Z,99.90
2018-02-27T02:42:41.609Z,99.90
2018-02-27T02:45:08.574Z,99.90
2018-02-27T02:47:35.518Z,99.90
2018-02-27T02:50:02.438Z,99.90
2018-02-27T02:52:29.375Z,99.90
2018-02-27T02:54:56.311Z,99.90
2018-02-27T02:57:23.239Z,99.90
2018-02-27T02:59:50.185Z,97.70
2018-02-27T03:02:17.130Z,97.00
2018-02-27T03:04:44.090Z,95.50
2018-02-27T03:07:11.019Z,93.50
2018-02-27T03:09:38.002Z,92.30
2018-02-27T03:12:04.943Z,92.10
2018-02-27T03:14:31.889Z,91.70
2018-02-27T03:16:58.839Z,91.00
2018-02-27T03:19:25.775Z,91.00
2018-02-27T03:21:52.698Z,91.00
2018-02-27T03:24:19.637Z,91.10
2018-02-27T03:26:46.553Z,90.60
2018-02-27T03:29:13.565Z,86.40
2018-02-27T03:31:40.483Z,86.20
2018-02-27T03:34:07.433Z,86.40
2018-02-27T03:36:34.357Z,86.50
2018-02-27T03:39:01.299Z,85.00
2018-02-27T03:41:28.229Z,85.00
2018-02-27T03:43:55.180Z,85.50
2018-02-27T03:46:22.144Z,84.80
2018-02-27T03:48:49.081Z,84.30
2018-02-27T03:51:16.023Z,84.40
2018-02-27T03:53:42.980Z,85.00
2018-02-27T03:56:09.917Z,85.10
2018-02-27T03:58:37.802Z,84.90
2018-02-27T04:01:04.731Z,83.80
2018-02-27T04:03:31.734Z,83.30
2018-02-27T04:05:58.678Z,83.80
2018-02-27T04:08:26.612Z,83.60
2018-02-27T04:10:53.541Z,84.10
2018-02-27T04:13:21.437Z,83.50
2018-02-27T04:15:48.370Z,83.90
2018-02-27T04:18:15.330Z,83.40
2018-02-27T04:20:42.269Z,83.60
2018-02-27T04:23:09.221Z,84.00
2018-02-27T04:25:36.166Z,83.70
2018-02-27T04:28:03.121Z,82.40
2018-02-27T04:30:30.828Z,81.50
2018-02-27T04:32:57.786Z,81.40
2018-02-27T04:35:24.736Z,81.60
2018-02-27T04:37:51.700Z,81.50
2018-02-27T04:40:19.640Z,81.90
2018-02-27T04:42:47.533Z,82.60
2018-02-27T04:45:14.475Z,81.80
2018-02-27T04:47:41.430Z,80.90
2018-02-27T04:50:08.354Z,81.50
2018-02-27T04:52:35.300Z,80.30
2018-02-27T04:55:03.137Z,80.20
2018-02-27T04:57:31.028Z,81.40
2018-02-27T04:59:57.968Z,81.30
2018-02-27T05:02:24.925Z,80.80
2018-02-27T05:04:51.856Z,81.20
2018-02-27T05:07:18.830Z,82.20
2018-02-27T05:09:45.759Z,82.00
2018-02-27T05:12:12.720Z,82.00
2018-02-27T05:14:39.650Z,82.60
2018-02-27T05:17:06.595Z,82.00
2018-02-27T05:19:33.538Z,82.10
2018-02-27T05:22:00.486Z,82.10
2018-02-27T05:24:27.418Z,82.20
2018-02-27T05:26:55.298Z,82.70
2018-02-27T05:29:22.263Z,82.80
2018-02-27T05:31:49.213Z,82.60
2018-02-27T05:34:16.163Z,82.90
2018-02-27T05:36:43.874Z,83.20
2018-02-27T05:39:10.803Z,83.00
2018-02-27T05:41:37.742Z,82.70
2018-02-27T05:44:04.679Z,82.50
2018-02-27T05:46:32.400Z,82.70
2018-02-27T05:49:00.241Z,82.40
2018-02-27T05:51:27.197Z,82.80
2018-02-27T05:53:54.131Z,82.50
2018-02-27T05:56:21.066Z,83.00
2018-02-27T05:58:48.028Z,83.50
2018-02-27T06:01:14.969Z,84.00
2018-02-27T06:03:41.923Z,84.30
2018-02-27T06:06:08.864Z,84.30
2018-02-27T06:08:35.826Z,84.10
2018-02-27T06:11:02.758Z,84.40
2018-02-27T06:13:29.714Z,83.70
2018-02-27T06:15:56.662Z,84.10
2018-02-27T06:18:23.694Z,84.60
2018-02-27T06:20:50.663Z,84.60
2018-02-27T06:23:18.606Z,84.60
2018-02-27T06:25:45.542Z,84.50
2018-02-27T06:28:13.512Z,83.40
2018-02-27T06:30:40.437Z,84.20
2018-02-27T06:33:07.384Z,83.50
2018-02-27T06:35:34.313Z,83.30
2018-02-27T06:38:02.054Z,83.90
2018-02-27T06:40:28.982Z,83.90
2018-02-27T06:42:55.927Z,83.70
2018-02-27T06:45:22.858Z,83.80
2018-02-27T06:47:49.808Z,82.30
2018-02-27T06:50:16.727Z,82.30
2018-02-27T06:52:47.486Z,82.00
2018-02-27T06:55:14.459Z,82.30
2018-02-27T06:57:41.354Z,81.90
2018-02-27T07:00:08.274Z,81.50
2018-02-27T07:02:35.983Z,81.60
2018-02-27T07:05:02.910Z,81.20
2018-02-27T07:07:30.778Z,80.90
2018-02-27T07:09:57.719Z,81.10
2018-02-27T07:12:24.657Z,79.20
2018-02-27T07:14:51.582Z,77.40
2018-02-27T07:17:19.294Z,77.20
2018-02-27T07:19:46.218Z,76.80
2018-02-27T07:22:13.174Z,77.10
2018-02-27T07:24:41.111Z,77.40
2018-02-27T07:27:08.044Z,77.80
2018-02-27T07:29:35.754Z,77.60
2018-02-27T07:32:02.682Z,77.60
2018-02-27T07:34:29.617Z,77.80
2018-02-27T07:36:56.538Z,75.80
2018-02-27T07:39:25.254Z,74.10
2018-02-27T07:41:52.203Z,74.10
2018-02-27T07:44:19.140Z,73.90
2018-02-27T07:46:46.063Z,75.00
2018-02-27T07:49:13.775Z,74.80
2018-02-27T07:51:40.694Z,75.00
2018-02-27T07:54:07.655Z,73.80
2018-02-27T07:56:34.591Z,73.40
2018-02-27T07:59:01.536Z,73.40
2018-02-27T08:01:28.467Z,73.10
2018-02-27T08:03:55.416Z,71.80
2018-02-27T08:06:22.338Z,71.50
2018-02-27T08:08:49.292Z,71.80
2018-02-27T08:11:16.218Z,71.30
2018-02-27T08:13:45.879Z,72.20
2018-02-27T08:16:12.811Z,72.20
2018-02-27T08:18:39.770Z,71.80
2018-02-27T08:21:06.714Z,70.90
2018-02-27T08:23:33.624Z,70.20
2018-02-27T08:26:00.554Z,67.60
2018-02-27T08:28:28.255Z,64.10
2018-02-27T08:30:55.179Z,64.00
2018-02-27T08:33:22.113Z,63.70
2018-02-27T08:35:49.053Z,64.00
2018-02-27T08:38:18.663Z,65.60
2018-02-27T08:40:46.359Z,64.60
2018-02-27T08:43:15.209Z,64.30
2018-02-27T08:45:43.900Z,65.60
2018-02-27T08:48:10.832Z,65.50
2018-02-27T08:50:38.540Z,66.40
2018-02-27T08:53:05.511Z,65.80
2018-02-27T08:55:32.448Z,65.90
2018-02-27T08:58:00.345Z,65.60
2018-02-27T09:00:27.268Z,65.70
2018-02-27T09:02:54.181Z,65.10
2018-02-27T09:05:21.106Z,64.00
2018-02-27T09:07:48.013Z,62.90
2018-02-27T09:10:14.932Z,63.10
2018-02-27T09:12:42.859Z,62.70
2018-02-27T09:15:09.804Z,62.20
2018-02-27T09:17:36.712Z,62.30
2018-02-27T09:20:04.600Z,61.40
2018-02-27T09:22:33.273Z,61.70
2018-02-27T09:25:00.216Z,61.40
2018-02-27T09:27:27.148Z,59.90
2018-02-27T09:29:54.090Z,58.10
2018-02-27T09:32:21.017Z,58.90
2018-02-27T09:34:49.850Z,59.90
2018-02-27T09:37:18.540Z,58.00
2018-02-27T09:39:46.212Z,56.80
2018-02-27T09:42:13.145Z,56.90
2018-02-27T09:44:40.829Z,60.20
2018-02-27T09:47:07.764Z,59.70
2018-02-27T09:49:34.677Z,59.20
2018-02-27T09:52:01.609Z,59.10
2018-02-27T09:54:28.525Z,59.30
2018-02-27T09:56:55.460Z,59.50
2018-02-27T09:59:25.501Z,59.60
2018-02-27T10:01:52.425Z,57.90
2018-02-27T10:04:19.344Z,57.50
2018-02-27T10:06:47.032Z,55.20
2018-02-27T10:09:14.849Z,55.00
2018-02-27T10:11:41.765Z,55.50
2018-02-27T10:14:08.680Z,56.10
2018-02-27T10:16:35.616Z,56.70
2018-02-27T10:19:02.546Z,56.40
2018-02-27T10:21:30.236Z,56.30
2018-02-27T10:23:57.144Z,57.00
2018-02-27T10:26:25.844Z,57.00
2018-02-27T10:28:53.701Z,56.80
2018-02-27T10:31:21.388Z,56.80
2018-02-27T10:33:48.298Z,56.60
2018-02-27T10:36:17.012Z,57.20
2018-02-27T10:38:43.925Z,57.30
2018-02-27T10:41:12.512Z,54.70
2018-02-27T10:43:40.200Z,55.50
2018-02-27T10:46:07.124Z,55.50
2018-02-27T10:48:34.817Z,54.20
2018-02-27T10:51:01.726Z,54.20
2018-02-27T10:53:31.344Z,56.20
2018-02-27T10:56:00.018Z,55.90
2018-02-27T10:58:28.717Z,56.70
2018-02-27T11:00:55.625Z,56.50
2018-02-27T11:03:22.548Z,56.80
2018-02-27T11:05:49.456Z,57.40
2018-02-27T11:08:16.381Z,58.90
2018-02-27T11:10:45.061Z,57.20
2018-02-27T11:13:12.748Z,57.00
2018-02-27T11:15:39.661Z,57.10
2018-02-27T11:18:07.601Z,57.50
2018-02-27T11:20:34.513Z,55.40
2018-02-27T11:23:01.445Z,55.30
2018-02-27T11:25:28.359Z,54.30
2018-02-27T11:27:55.282Z,53.70
2018-02-27T11:30:22.192Z,54.20
2018-02-27T11:32:49.112Z,55.90
2018-02-27T11:35:16.775Z,56.10
2018-02-27T11:37:46.480Z,56.00
2018-02-27T11:40:14.158Z,55.40
2018-02-27T11:42:42.008Z,55.60
2018-02-27T11:45:09.681Z,56.70
2018-02-27T11:47:36.592Z,56.40
2018-02-27T11:50:03.524Z,56.80
2018-02-27T11:52:30.436Z,57.60
2018-02-27T11:54:57.371Z,57.10
2018-02-27T11:57:24.269Z,56.70
2018-02-27T11:59:51.186Z,58.60
2018-02-27T12:02:18.076Z,57.00
2018-02-27T12:04:45.750Z,58.10
2018-02-27T12:07:13.406Z,57.30
2018-02-27T12:09:41.098Z,56.60
2018-02-27T12:12:08.007Z,56.70
2018-02-27T12:14:35.699Z,56.60
2018-02-27T12:17:02.608Z,56.60
2018-02-27T12:19:29.550Z,57.00
2018-02-27T12:21:56.464Z,55.30
2018-02-27T12:24:23.393Z,53.60
2018-02-27T12:26:50.304Z,53.10
2018-02-27T12:29:17.237Z,52.50
2018-02-27T12:31:44.903Z,53.70
2018-02-27T12:34:12.588Z,53.80
2018-02-27T12:36:39.499Z,53.80
2018-02-27T12:39:06.444Z,54.00
2018-02-27T12:41:34.125Z,55.00
2018-02-27T12:44:01.997Z,54.80
2018-02-27T12:46:29.858Z,55.70
2018-02-27T12:48:56.798Z,56.30
2018-02-27T12:51:24.497Z,58.60
2018-02-27T12:53:51.594Z,58.60
2018-02-27T12:56:19.264Z,59.50
2018-02-27T12:58:46.969Z,58.60
2018-02-27T13:01:13.872Z,58.10
2018-02-27T13:03:41.586Z,57.90
2018-02-27T13:06:08.500Z,58.20
2018-02-27T13:08:35.420Z,58.10
2018-02-27T13:11:04.068Z,60.40
2018-02-27T13:13:30.996Z,60.40
2018-02-27T13:15:57.903Z,60.60
2018-02-27T13:18:24.929Z,60.80
2018-02-27T13:20:51.876Z,61.40
2018-02-27T13:23:19.575Z,63.50
2018-02-27T13:25:47.500Z,63.70
2018-02-27T13:28:15.200Z,69.10
2018-02-27T13:30:42.171Z,68.70
2018-02-27T13:33:09.090Z,67.80
2018-02-27T13:35:36.005Z,79.00
2018-02-27T13:38:02.949Z,75.30
2018-02-27T13:40:29.894Z,74.20
2018-02-27T13:42:57.815Z,70.50
2018-02-27T13:45:24.730Z,70.90
2018-02-27T13:47:51.769Z,71.00
2018-02-27T13:50:19.428Z,72.80
2018-02-27T13:52:48.020Z,73.80
2018-02-27T13:55:14.925Z,73.90
2018-02-27T13:57:41.853Z,78.90
2018-02-27T14:00:08.791Z,82.80
2018-02-27T14:02:35.757Z,87.10
2018-02-27T14:05:02.687Z,91.30
2018-02-27T14:07:29.625Z,93.20
2018-02-27T14:09:56.556Z,99.90
2018-02-27T14:12:23.476Z,99.90
2018-02-27T14:14:51.420Z,98.80
2018-02-27T14:17:19.092Z,95.90
2018-02-27T14:19:47.303Z,96.60
2018-02-27T14:22:15.212Z,96.70
2018-02-27T14:24:42.129Z,97.30
2018-02-27T14:27:09.132Z,97.00
2018-02-27T14:29:36.069Z,96.40
2018-02-27T14:32:03.044Z,91.80
2018-02-27T14:34:34.741Z,90.40
2018-02-27T14:37:04.757Z,83.20
2018-02-27T14:39:32.473Z,76.90
2018-02-27T14:41:59.396Z,77.00
2018-02-27T14:44:26.337Z,75.60
2018-02-27T14:46:53.245Z,72.40
2018-02-27T14:49:20.575Z,70.90
2018-02-27T14:51:48.256Z,67.60
2018-02-27T14:54:15.202Z,67.10
2018-02-27T14:56:43.100Z,63.50
2018-02-27T14:59:10.799Z,61.00
2018-02-27T15:01:37.722Z,61.10
2018-02-27T15:04:06.616Z,61.10
2018-02-27T15:06:33.524Z,57.50
2018-02-27T15:09:01.220Z,55.90
2018-02-27T15:11:28.150Z,55.70
2018-02-27T15:13:56.853Z,53.70
2018-02-27T15:16:23.772Z,53.60
2018-02-27T15:18:52.224Z,52.90
2018-02-27T15:21:19.130Z,53.00
2018-02-27T15:23:46.106Z,52.40
2018-02-27T15:26:13.021Z,52.90
2018-02-27T15:28:39.948Z,50.90
2018-02-27T15:31:07.809Z,49.60
2018-02-27T15:33:35.504Z,50.30
2018-02-27T15:36:02.434Z,50.00
2018-02-27T15:38:29.369Z,57.60
2018-02-27T15:40:57.216Z,51.40
2018-02-27T15:43:24.933Z,50.10
2018-02-27T15:45:51.852Z,50.30
2018-02-27T15:48:18.816Z,50.10
2018-02-27T15:50:45.742Z,49.60
2018-02-27T15:53:12.716Z,49.30
2018-02-27T15:55:39.634Z,50.10
2018-02-27T15:58:06.566Z,50.30
2018-02-27T16:00:33.489Z,50.00
2018-02-27T16:03:04.660Z,50.60
2018-02-27T16:05:31.576Z,50.60
2018-02-27T16:08:00.320Z,51.20
2018-02-27T16:10:27.246Z,51.20
2018-02-27T16:12:55.184Z,53.20
2018-02-27T16:15:22.882Z,52.20
2018-02-27T16:17:49.828Z,52.10
2018-02-27T16:20:16.737Z,52.00
2018-02-27T16:22:45.340Z,53.10
2018-02-27T16:25:12.281Z,53.30
2018-02-27T16:27:39.215Z,53.40
2018-02-27T16:30:06.132Z,52.90
2018-02-27T16:32:33.069Z,54.00
2018-02-27T16:34:59.977Z,53.60
2018-02-27T16:37:26.909Z,53.50
2018-02-27T16:39:54.849Z,53.40
2018-02-27T16:42:22.742Z,54.90
2018-02-27T16:44:49.660Z,54.80
2018-02-27T16:47:17.360Z,55.30
2018-02-27T16:49:44.274Z,55.30
2018-02-27T16:52:11.969Z,55.90
2018-02-27T16:54:38.885Z,55.60
2018-02-27T16:57:06.831Z,55.40
2018-02-27T16:59:33.791Z,55.30
2018-02-27T17:02:01.477Z,55.20
2018-02-27T17:04:28.397Z,54.50
2018-02-27T17:06:55.316Z,55.20
2018-02-27T17:09:23.013Z,53.50
2018-02-27T17:11:50.845Z,53.10
2018-02-27T17:14:18.581Z,55.80
2018-02-27T17:16:46.477Z,55.70
2018-02-27T17:19:14.148Z,55.50
2018-02-27T17:21:41.092Z,55.50
2018-02-27T17:24:08.017Z,55.10
2018-02-27T17:26:35.710Z,55.30
2018-02-27T17:29:02.616Z,55.50
2018-02-27T17:31:29.541Z,54.80
2018-02-27T17:33:56.457Z,53.60
2018-02-27T17:36:23.381Z,54.00
2018-02-27T17:38:50.316Z,54.00
2018-02-27T17:41:17.240Z,53.20
2018-02-27T17:43:48.388Z,53.30
2018-02-27T17:46:16.086Z,53.30
2018-02-27T17:48:42.998Z,53.70
2018-02-27T17:51:13.669Z,53.70
2018-02-27T17:53:41.570Z,54.70
2018-02-27T17:56:08.496Z,53.60
2018-02-27T17:58:36.401Z,52.10
2018-02-27T18:01:04.332Z,52.00
2018-02-27T18:03:32.254Z,51.50
2018-02-27T18:05:59.956Z,50.60
2018-02-27T18:08:26.892Z,51.80
2018-02-27T18:10:53.836Z,50.60
2018-02-27T18:13:22.662Z,51.50
2018-02-27T18:15:49.632Z,50.70
2018-02-27T18:18:17.325Z,50.20
2018-02-27T18:20:44.250Z,50.30
2018-02-27T18:23:11.165Z,51.00
2018-02-27T18:25:38.089Z,49.60
2018-02-27T18:28:05.020Z,49.80
2018-02-27T18:30:31.993Z,49.00
2018-02-27T18:33:02.039Z,49.70
2018-02-27T18:35:30.901Z,50.10
2018-02-27T18:37:57.871Z,50.20
2018-02-27T18:40:25.790Z,49.70
2018-02-27T18:42:52.762Z,49.70
2018-02-27T18:45:20.461Z,50.10
2018-02-27T18:47:47.400Z,49.90
2018-02-27T18:50:15.377Z,49.50
2018-02-27T18:52:42.280Z,49.40
2018-02-27T18:55:09.256Z,49.50
2018-02-27T18:57:36.297Z,49.90
2018-02-27T19:00:04.018Z,49.50
2018-02-27T19:02:30.966Z,49.30
2018-02-27T19:04:58.843Z,49.30
2018-02-27T19:07:25.762Z,50.10
2018-02-27T19:09:52.712Z,48.50
2018-02-27T19:12:19.649Z,48.70
2018-02-27T19:14:46.594Z,48.70
2018-02-27T19:17:13.508Z,49.10
2018-02-27T19:19:40.467Z,49.20
2018-02-27T19:22:07.410Z,49.20
2018-02-27T19:24:34.342Z,49.40
2018-02-27T19:27:01.265Z,49.80
2018-02-27T19:29:28.229Z,50.20
2018-02-27T19:31:55.163Z,50.70
2018-02-27T19:34:23.864Z,52.10
2018-02-27T19:36:50.852Z,52.10
2018-02-27T19:39:18.768Z,52.50
2018-02-27T19:41:45.681Z,52.80
2018-02-27T19:44:12.609Z,53.90
2018-02-27T19:46:40.532Z,53.90
2018-02-27T19:49:08.372Z,54.50
2018-02-27T19:51:36.060Z,55.50
2018-02-27T19:54:02.987Z,55.10
2018-02-27T19:56:30.664Z,55.70
2018-02-27T19:58:57.610Z,55.10
2018-02-27T20:01:24.581Z,55.30
2018-02-27T20:03:51.511Z,54.60
2018-02-27T20:06:18.436Z,55.30
2018-02-27T20:08:45.401Z,55.70
2018-02-27T20:11:12.321Z,55.40
2018-02-27T20:13:40.105Z,55.30
2018-02-27T20:16:07.084Z,55.30
2018-02-27T20:18:34.327Z,55.70
2018-02-27T20:21:01.298Z,54.90
2018-02-27T20:23:30.164Z,53.80
2018-02-27T20:25:57.084Z,54.60
2018-02-27T20:28:24.925Z,54.50
2018-02-27T20:30:51.865Z,54.50
2018-02-27T20:33:19.548Z,54.70
2018-02-27T20:35:46.502Z,54.80
2018-02-27T20:38:13.453Z,54.70
2018-02-27T20:40:40.390Z,55.00
2018-02-27T20:43:07.295Z,55.00
2018-02-27T20:45:34.325Z,55.30
2018-02-27T20:48:01.258Z,54.70
2018-02-27T20:50:28.245Z,55.10
2018-02-27T20:52:55.149Z,55.60
2018-02-27T20:55:22.265Z,55.50
2018-02-27T20:57:49.482Z,55.30
2018-02-27T21:00:18.193Z,55.90
2018-02-27T21:02:45.109Z,55.60
2018-02-27T21:05:12.850Z,55.50
2018-02-27T21:07:39.748Z,54.70
2018-02-27T21:10:07.749Z,54.90
2018-02-27T21:12:34.673Z,54.50
2018-02-27T21:15:02.434Z,54.60
2018-02-27T21:17:29.628Z,54.10
2018-02-27T21:19:56.578Z,54.40
2018-02-27T21:22:23.515Z,54.80
2018-02-27T21:24:51.412Z,55.30
2018-02-27T21:27:18.323Z,54.90
2018-02-27T21:29:45.249Z,55.20
2018-02-27T21:32:12.167Z,55.40
2018-02-27T21:34:42.347Z,55.50
2018-02-27T21:37:09.252Z,55.10
2018-02-27T21:39:36.197Z,55.20
2018-02-27T21:42:03.132Z,55.30
2018-02-27T21:44:30.061Z,55.20
2018-02-27T21:46:56.972Z,55.40
2018-02-27T21:49:23.947Z,55.10
2018-02-27T21:51:50.852Z,55.00
2018-02-27T21:54:18.645Z,54.90
2018-02-27T21:56:45.596Z,54.70
2018-02-27T21:59:12.579Z,54.30
2018-02-27T22:01:39.503Z,53.70
2018-02-27T22:04:06.459Z,53.90
2018-02-27T22:06:33.371Z,54.10
2018-02-27T22:09:00.304Z,53.90
2018-02-27T22:11:29.899Z,54.50
2018-02-27T22:13:56.832Z,54.50
2018-02-27T22:16:23.748Z,53.90
2018-02-27T22:18:50.689Z,54.00
2018-02-27T22:21:18.508Z,54.00
2018-02-27T22:23:46.242Z,54.30
2018-02-27T22:26:13.155Z,54.30
2018-02-27T22:28:40.076Z,53.50
2018-02-27T22:31:07.036Z,54.00
2018-02-27T22:33:33.964Z,53.90
2018-02-27T22:36:03.661Z,53.70
2018-02-27T22:38:31.358Z,53.80
2018-02-27T22:40:58.269Z,53.60
2018-02-27T22:43:25.946Z,53.50
2018-02-27T22:45:52.920Z,53.60
2018-02-27T22:48:21.030Z,53.50
2018-02-27T22:50:48.749Z,53.30
2018-02-27T22:53:15.662Z,53.50
2018-02-27T22:55:42.598Z,54.00
2018-02-27T22:58:10.275Z,53.30
2018-02-27T23:00:40.116Z,53.30
2018-02-27T23:03:07.951Z,53.60
2018-02-27T23:05:35.816Z,53.90
2018-02-27T23:08:02.743Z,54.20
2018-02-27T23:10:30.432Z,54.00
2018-02-27T23:12:57.336Z,54.10
2018-02-27T23:15:24.265Z,53.60
2018-02-27T23:17:51.182Z,54.10
2018-02-27T23:20:18.096Z,53.00
2018-02-27T23:22:45.004Z,53.60
2018-02-27T23:25:20.927Z,53.70
2018-02-27T23:27:49.235Z,53.60
2018-02-27T23:33:02.412Z,53.10
2018-02-27T23:35:29.328Z,53.00
2018-02-27T23:37:57.020Z,54.20
2018-02-27T23:40:23.935Z,53.70
2018-02-27T23:42:51.623Z,53.70
2018-02-27T23:45:18.528Z,53.40
2018-02-27T23:47:45.458Z,53.50
2018-02-27T23:50:14.381Z,52.50
2018-02-27T23:52:42.084Z,54.30
2018-02-27T23:55:08.991Z,53.30
2018-02-27T23:57:36.709Z,53.80
